Terminal Aerodrome Forecast
Issued by NWS

Home | Current Version | Previous Version | Text Only | Print | Product List | Glossary On
Versions: 1 2 3 4 5 6 7 8 9 10 11 12 13 14 15 16 17
000
FTUS41 KALY 011100
TAFPSF
TAF
KPSF 011124Z 0112/0212 VRB03KT P6SM SCT009 OVC015
      TEMPO 0112/0115 3SM -RA BR BKN009 OVC015
     FM011500 03005KT 5SM -RA BR SCT009 OVC015
     FM011900 01006KT P6SM VCSH BKN012 OVC025
     FM020000 VRB03KT P6SM VCSH OVC015=

USA.gov is the U.S. government's official web portal to all federal, state and local government web resources and services.